Aérodrome :
LOGIN :

S'inscrire | Disclaimer

   EN    FR    IT 

 










Légende :    VFR   VFR Marginal   IFR   IFR Intensif   IFR Très Intensif
Visi : 
Plafond : 
>= 8 km
>= 3000ft
5 à 8 km
1000 à 3000 ft
1500m à 5 km
500 à 1000 ft
800 à 1500m
200 à 500 ft
< 800m
< 200 ft
Symboles :   Orages  Brouillard  Fortes neiges  Fortes précipitations  Vent > 20 kt
SIGMETs :   Divers  Orages  Givrage  Turbulence  Onde Orograph.  Cendres Volcan.






- Altitude de l'aérodrome : 670 ft
- Code IATA : MSQ


UMMS - Minsk - 2

DERNIER METAR :
  • 221930Z 21010G15MPS 9999 BKN031CB 04/M00 Q1007 R88/290050 NOSIG

METARs EXPIRÉS :
  • 221900Z 21013G19MPS 9999 BKN029CB 04/M01 Q1007 R88/290050 NOSIG
  • 221830Z 20013G18MPS 9999 BKN037 05/M01 Q1007 R88/290050 NOSIG
  • 221800Z 20012G16MPS CAVOK 04/M00 Q1008 R88/290050 NOSIG
  • 221730Z 19012G15MPS CAVOK 04/00 Q1009 R88/290050 NOSIG
  • 221700Z 20011G15MPS 9999 BKN037CB 04/01 Q1010 R88/290050 NOSIG

TAF AMD TAF UMMS
Valide du 22 à 19h jusqu'au 23 à 18h UTC


221918Z 2219/2318 20010G15MPS 9999 BKN015
TEMPO 2219/2306 22014G19MPS 1200 SHRA BR BKN003 BKN013CB
TEMPO 2306/2318 23014G19MPS 2100 -SHRA BKN004 BKN013CB



MET'MAP, la Météo Aéronautique d'un coup d'oeil ! - Copyright ORBIFLY Décembre 2007 - Disclaimer

ORBIFLY MET'MAP TEAM :

Programmation & Développement : Alexandra Zaïnal
Sur une idée originale de : Baudouin d'Aumeries
Assistance à la programmation : Marc-Olivier Méhu
Soutien technique & logistique : Manuel Goepfert

Contact : metmap@orbifly.com




SOURCES & CREDITS :

   NOAA